sensor_id;sensor_type;location;lat;lon;timestamp;pressure;altitude;pressure_sealevel;temperature
69186;BMP280;56298;49.246;9.410;2022-11-20T00:00:45;98954.38;;;3.12
69186;BMP280;56298;49.246;9.410;2022-11-20T00:03:10;98952.66;;;3.16
69186;BMP280;56298;49.246;9.410;2022-11-20T00:05:36;98953.94;;;3.19
69186;BMP280;56298;49.246;9.410;2022-11-20T00:08:01;98955.44;;;3.25
69186;BMP280;56298;49.246;9.410;2022-11-20T00:10:26;98957.03;;;3.26
69186;BMP280;56298;49.246;9.410;2022-11-20T00:12:51;98963.25;;;3.27
69186;BMP280;56298;49.246;9.410;2022-11-20T00:15:17;98959.56;;;3.23
69186;BMP280;56298;49.246;9.410;2022-11-20T00:17:44;98955.06;;;3.18
69186;BMP280;56298;49.246;9.410;2022-11-20T00:20:10;98953.78;;;3.15
69186;BMP280;56298;49.246;9.410;2022-11-20T00:22:35;98963.19;;;3.18
69186;BMP280;56298;49.246;9.410;2022-11-20T00:25:00;98957.03;;;3.26
69186;BMP280;56298;49.246;9.410;2022-11-20T00:27:25;98959.44;;;3.28
69186;BMP280;56298;49.246;9.410;2022-11-20T00:29:51;98945.91;;;3.28
69186;BMP280;56298;49.246;9.410;2022-11-20T00:32:16;98947.78;;;3.27
69186;BMP280;56298;49.246;9.410;2022-11-20T00:34:41;98952.75;;;3.25
69186;BMP280;56298;49.246;9.410;2022-11-20T00:37:06;98953.53;;;3.26
69186;BMP280;56298;49.246;9.410;2022-11-20T00:39:32;98954.97;;;3.32
69186;BMP280;56298;49.246;9.410;2022-11-20T00:41:57;98947.34;;;3.34
69186;BMP280;56298;49.246;9.410;2022-11-20T00:44:22;98948.16;;;3.35
69186;BMP280;56298;49.246;9.410;2022-11-20T00:46:47;98950.72;;;3.40
69186;BMP280;56298;49.246;9.410;2022-11-20T00:49:13;98955.19;;;3.44
69186;BMP280;56298;49.246;9.410;2022-11-20T00:51:38;98952.47;;;3.44
69186;BMP280;56298;49.246;9.410;2022-11-20T00:54:03;98945.03;;;3.50
69186;BMP280;56298;49.246;9.410;2022-11-20T00:56:28;98953.00;;;3.47
69186;BMP280;56298;49.246;9.410;2022-11-20T00:58:54;98956.31;;;3.43
69186;BMP280;56298;49.246;9.410;2022-11-20T01:01:24;98953.59;;;3.43
69186;BMP280;56298;49.246;9.410;2022-11-20T01:03:51;98960.63;;;3.44
69186;BMP280;56298;49.246;9.410;2022-11-20T01:08:49;98950.84;;;3.35
69186;BMP280;56298;49.246;9.410;2022-11-20T01:11:18;98948.19;;;3.43
69186;BMP280;56298;49.246;9.410;2022-11-20T01:13:45;98941.94;;;3.43
69186;BMP280;56298;49.246;9.410;2022-11-20T01:16:17;98953.78;;;3.47
69186;BMP280;56298;49.246;9.410;2022-11-20T01:18:45;98946.75;;;3.46
69186;BMP280;56298;49.246;9.410;2022-11-20T01:21:13;98954.72;;;3.42
69186;BMP280;56298;49.246;9.410;2022-11-20T01:23:40;98949.31;;;3.42
69186;BMP280;56298;49.246;9.410;2022-11-20T01:26:08;98951.81;;;3.39
69186;BMP280;56298;49.246;9.410;2022-11-20T01:28:34;98948.34;;;3.47
69186;BMP280;56298;49.246;9.410;2022-11-20T01:31:00;98947.88;;;3.45
69186;BMP280;56298;49.246;9.410;2022-11-20T01:33:26;98949.66;;;3.50
69186;BMP280;56298;49.246;9.410;2022-11-20T01:35:52;98946.00;;;3.54
69186;BMP280;56298;49.246;9.410;2022-11-20T01:38:18;98941.84;;;3.57
69186;BMP280;56298;49.246;9.410;2022-11-20T01:40:45;98944.09;;;3.55
69186;BMP280;56298;49.246;9.410;2022-11-20T01:43:17;98948.22;;;3.52
69186;BMP280;56298;49.246;9.410;2022-11-20T01:46:15;98952.56;;;3.53
69186;BMP280;56298;49.246;9.410;2022-11-20T01:48:53;98946.50;;;3.56
69186;BMP280;56298;49.246;9.410;2022-11-20T01:51:22;98944.91;;;3.55
69186;BMP280;56298;49.246;9.410;2022-11-20T01:53:50;98945.34;;;3.57
69186;BMP280;56298;49.246;9.410;2022-11-20T01:56:17;98931.47;;;3.59
69186;BMP280;56298;49.246;9.410;2022-11-20T01:58:48;98924.31;;;3.54
69186;BMP280;56298;49.246;9.410;2022-11-20T02:01:14;98927.66;;;3.60
69186;BMP280;56298;49.246;9.410;2022-11-20T02:03:40;98932.97;;;3.65
69186;BMP280;56298;49.246;9.410;2022-11-20T02:06:53;98938.56;;;3.69
69186;BMP280;56298;49.246;9.410;2022-11-20T02:08:52;98934.25;;;3.68
69186;BMP280;56298;49.246;9.410;2022-11-20T02:11:18;98935.03;;;3.68
69186;BMP280;56298;49.246;9.410;2022-11-20T02:13:44;98930.44;;;3.69
69186;BMP280;56298;49.246;9.410;2022-11-20T02:18:41;98927.44;;;3.79
69186;BMP280;56298;49.246;9.410;2022-11-20T02:23:39;98935.22;;;3.72
69186;BMP280;56298;49.246;9.410;2022-11-20T02:26:11;98929.31;;;3.79
69186;BMP280;56298;49.246;9.410;2022-11-20T02:28:41;98925.16;;;3.72
69186;BMP280;56298;49.246;9.410;2022-11-20T02:31:06;98923.91;;;3.79
69186;BMP280;56298;49.246;9.410;2022-11-20T02:33:32;98928.38;;;3.83
69186;BMP280;56298;49.246;9.410;2022-11-20T02:35:57;98928.84;;;3.85
69186;BMP280;56298;49.246;9.410;2022-11-20T02:38:23;98925.66;;;3.83
69186;BMP280;56298;49.246;9.410;2022-11-20T02:40:48;98927.75;;;3.87
69186;BMP280;56298;49.246;9.410;2022-11-20T02:43:15;98927.41;;;3.88
69186;BMP280;56298;49.246;9.410;2022-11-20T02:45:40;98916.56;;;3.88
69186;BMP280;56298;49.246;9.410;2022-11-20T02:48:06;98912.94;;;3.93
69186;BMP280;56298;49.246;9.410;2022-11-20T02:50:32;98909.91;;;3.94
69186;BMP280;56298;49.246;9.410;2022-11-20T02:52:58;98909.59;;;3.96
69186;BMP280;56298;49.246;9.410;2022-11-20T02:55:23;98907.66;;;3.96
69186;BMP280;56298;49.246;9.410;2022-11-20T02:57:48;98905.94;;;4.01
69186;BMP280;56298;49.246;9.410;2022-11-20T03:00:14;98905.31;;;4.04
69186;BMP280;56298;49.246;9.410;2022-11-20T03:02:39;98897.94;;;4.04
69186;BMP280;56298;49.246;9.410;2022-11-20T03:05:04;98899.38;;;4.02
69186;BMP280;56298;49.246;9.410;2022-11-20T03:07:30;98902.59;;;4.04
69186;BMP280;56298;49.246;9.410;2022-11-20T03:09:55;98901.13;;;4.06
69186;BMP280;56298;49.246;9.410;2022-11-20T03:12:20;98903.84;;;4.15
69186;BMP280;56298;49.246;9.410;2022-11-20T03:14:46;98896.38;;;4.12
69186;BMP280;56298;49.246;9.410;2022-11-20T03:17:11;98899.38;;;4.10
69186;BMP280;56298;49.246;9.410;2022-11-20T03:19:36;98901.31;;;4.19
69186;BMP280;56298;49.246;9.410;2022-11-20T03:22:01;98893.16;;;4.19
69186;BMP280;56298;49.246;9.410;2022-11-20T03:24:27;98890.59;;;4.13
69186;BMP280;56298;49.246;9.410;2022-11-20T03:26:52;98887.09;;;4.13
69186;BMP280;56298;49.246;9.410;2022-11-20T03:29:17;98884.91;;;4.24
69186;BMP280;56298;49.246;9.410;2022-11-20T03:31:42;98887.09;;;4.13
69186;BMP280;56298;49.246;9.410;2022-11-20T03:34:09;98887.88;;;4.13
69186;BMP280;56298;49.246;9.410;2022-11-20T03:36:38;98887.25;;;4.17
69186;BMP280;56298;49.246;9.410;2022-11-20T03:39:04;98883.59;;;4.12
69186;BMP280;56298;49.246;9.410;2022-11-20T03:41:31;98889.66;;;4.18
69186;BMP280;56298;49.246;9.410;2022-11-20T03:44:01;98889.66;;;4.18
69186;BMP280;56298;49.246;9.410;2022-11-20T03:46:27;98889.34;;;4.20
69186;BMP280;56298;49.246;9.410;2022-11-20T03:48:53;98886.00;;;4.23
69186;BMP280;56298;49.246;9.410;2022-11-20T03:51:27;98883.78;;;4.25
69186;BMP280;56298;49.246;9.410;2022-11-20T03:53:56;98881.84;;;4.25
69186;BMP280;56298;49.246;9.410;2022-11-20T03:56:26;98879.59;;;4.28
69186;BMP280;56298;49.246;9.410;2022-11-20T03:58:52;98880.06;;;4.30
69186;BMP280;56298;49.246;9.410;2022-11-20T04:01:21;98880.25;;;4.33
69186;BMP280;56298;49.246;9.410;2022-11-20T04:03:47;98877.84;;;4.32
69186;BMP280;56298;49.246;9.410;2022-11-20T04:06:15;98877.66;;;4.28
69186;BMP280;56298;49.246;9.410;2022-11-20T04:08:41;98879.44;;;4.33
69186;BMP280;56298;49.246;9.410;2022-11-20T04:13:35;98870.16;;;4.34
69186;BMP280;56298;49.246;9.410;2022-11-20T04:16:00;98881.53;;;4.36
69186;BMP280;56298;49.246;9.410;2022-11-20T04:18:25;98869.22;;;4.38
69186;BMP280;56298;49.246;9.410;2022-11-20T04:20:50;98878.16;;;4.39
69186;BMP280;56298;49.246;9.410;2022-11-20T04:23:16;98872.41;;;4.41
69186;BMP280;56298;49.246;9.410;2022-11-20T04:25:41;98875.94;;;4.41
69186;BMP280;56298;49.246;9.410;2022-11-20T04:28:06;98877.19;;;4.26
69186;BMP280;56298;49.246;9.410;2022-11-20T04:30:31;98878.34;;;4.25
69186;BMP280;56298;49.246;9.410;2022-11-20T04:32:57;98877.38;;;4.21
69186;BMP280;56298;49.246;9.410;2022-11-20T04:35:22;98880.72;;;4.26
69186;BMP280;56298;49.246;9.410;2022-11-20T04:37:47;98876.75;;;4.24
69186;BMP280;56298;49.246;9.410;2022-11-20T04:40:13;98884.09;;;4.23
69186;BMP280;56298;49.246;9.410;2022-11-20T04:42:38;98875.75;;;4.29
69186;BMP280;56298;49.246;9.410;2022-11-20T04:45:04;98878.00;;;4.26
69186;BMP280;56298;49.246;9.410;2022-11-20T04:47:29;98873.19;;;4.32
69186;BMP280;56298;49.246;9.410;2022-11-20T04:49:54;98860.75;;;4.31
69186;BMP280;56298;49.246;9.410;2022-11-20T04:52:19;98870.34;;;4.29
69186;BMP280;56298;49.246;9.410;2022-11-20T04:54:45;98877.66;;;4.28
69186;BMP280;56298;49.246;9.410;2022-11-20T04:57:12;98867.94;;;4.27
69186;BMP280;56298;49.246;9.410;2022-11-20T04:59:37;98864.09;;;4.28
69186;BMP280;56298;49.246;9.410;2022-11-20T05:02:03;98870.50;;;4.32
69186;BMP280;56298;49.246;9.410;2022-11-20T05:04:28;98866.19;;;4.40
69186;BMP280;56298;49.246;9.410;2022-11-20T05:06:53;98872.88;;;4.34
69186;BMP280;56298;49.246;9.410;2022-11-20T05:09:18;98882.19;;;4.24
69186;BMP280;56298;49.246;9.410;2022-11-20T05:11:44;98866.19;;;4.31
69186;BMP280;56298;49.246;9.410;2022-11-20T05:14:09;98877.34;;;4.30
69186;BMP280;56298;49.246;9.410;2022-11-20T05:16:35;98870.81;;;4.31
69186;BMP280;56298;49.246;9.410;2022-11-20T05:19:01;98870.31;;;4.37
69186;BMP280;56298;49.246;9.410;2022-11-20T05:21:26;98867.78;;;4.41
69186;BMP280;56298;49.246;9.410;2022-11-20T05:23:52;98868.41;;;4.47
69186;BMP280;56298;49.246;9.410;2022-11-20T05:26:22;98865.69;;;4.47
69186;BMP280;56298;49.246;9.410;2022-11-20T05:28:48;98866.50;;;4.47
69186;BMP280;56298;49.246;9.410;2022-11-20T05:31:16;98870.97;;;4.52
69186;BMP280;56298;49.246;9.410;2022-11-20T05:33:43;98869.34;;;4.51
69186;BMP280;56298;49.246;9.410;2022-11-20T05:36:09;98868.72;;;4.54
69186;BMP280;56298;49.246;9.410;2022-11-20T05:38:34;98867.44;;;4.60
69186;BMP280;56298;49.246;9.410;2022-11-20T05:41:14;98863.13;;;4.59
69186;BMP280;56298;49.246;9.410;2022-11-20T05:43:41;98867.44;;;4.60
69186;BMP280;56298;49.246;9.410;2022-11-20T05:46:08;98869.63;;;4.67
69186;BMP280;56298;49.246;9.410;2022-11-20T05:48:34;98860.38;;;4.68
69186;BMP280;56298;49.246;9.410;2022-11-20T05:51:02;98875.06;;;4.67
69186;BMP280;56298;49.246;9.410;2022-11-20T05:53:28;98868.88;;;4.66
69186;BMP280;56298;49.246;9.410;2022-11-20T05:56:05;98867.72;;;4.76
69186;BMP280;56298;49.246;9.410;2022-11-20T05:58:31;98879.69;;;4.84
69186;BMP280;56298;49.246;9.410;2022-11-20T06:03:32;98872.78;;;4.87
69186;BMP280;56298;49.246;9.410;2022-11-20T06:06:02;98863.72;;;4.83
69186;BMP280;56298;49.246;9.410;2022-11-20T06:08:28;98871.19;;;4.86
69186;BMP280;56298;49.246;9.410;2022-11-20T06:10:53;98876.31;;;4.87
69186;BMP280;56298;49.246;9.410;2022-11-20T06:13:18;98879.66;;;4.93
69186;BMP280;56298;49.246;9.410;2022-11-20T06:15:53;98877.22;;;5.00
69186;BMP280;56298;49.246;9.410;2022-11-20T06:18:19;98874.38;;;4.97
69186;BMP280;56298;49.246;9.410;2022-11-20T06:20:45;98875.81;;;4.94
69186;BMP280;56298;49.246;9.410;2022-11-20T06:23:10;98870.84;;;4.96
69186;BMP280;56298;49.246;9.410;2022-11-20T06:25:42;98874.38;;;4.97
69186;BMP280;56298;49.246;9.410;2022-11-20T06:28:08;98869.41;;;4.99
69186;BMP280;56298;49.246;9.410;2022-11-20T06:30:34;98869.25;;;5.04
69186;BMP280;56298;49.246;9.410;2022-11-20T06:33:00;98873.22;;;5.06
69186;BMP280;56298;49.246;9.410;2022-11-20T06:35:25;98869.38;;;5.07
69186;BMP280;56298;49.246;9.410;2022-11-20T06:37:50;98878.16;;;5.13
69186;BMP280;56298;49.246;9.410;2022-11-20T06:40:16;98875.91;;;5.15
69186;BMP280;56298;49.246;9.410;2022-11-20T06:42:41;98883.06;;;5.20
69186;BMP280;56298;49.246;9.410;2022-11-20T06:45:07;98874.56;;;5.21
69186;BMP280;56298;49.246;9.410;2022-11-20T06:47:33;98874.25;;;5.23
69186;BMP280;56298;49.246;9.410;2022-11-20T06:49:58;98879.38;;;5.25
69186;BMP280;56298;49.246;9.410;2022-11-20T06:52:23;98881.44;;;5.28
69186;BMP280;56298;49.246;9.410;2022-11-20T06:54:49;98878.38;;;5.29
69186;BMP280;56298;49.246;9.410;2022-11-20T06:57:14;98882.53;;;5.27
69186;BMP280;56298;49.246;9.410;2022-11-20T06:59:39;98882.41;;;5.32
69186;BMP280;56298;49.246;9.410;2022-11-20T07:02:04;98882.41;;;5.32
69186;BMP280;56298;49.246;9.410;2022-11-20T07:04:30;98880.59;;;5.36
69186;BMP280;56298;49.246;9.410;2022-11-20T07:06:55;98882.66;;;5.39
69186;BMP280;56298;49.246;9.410;2022-11-20T07:09:20;98885.38;;;5.39
69186;BMP280;56298;49.246;9.410;2022-11-20T07:11:45;98886.53;;;5.38
69186;BMP280;56298;49.246;9.410;2022-11-20T07:14:11;98883.81;;;5.38
69186;BMP280;56298;49.246;9.410;2022-11-20T07:16:36;98884.72;;;5.42
69186;BMP280;56298;49.246;9.410;2022-11-20T07:19:01;98896.19;;;5.48
69186;BMP280;56298;49.246;9.410;2022-11-20T07:21:27;98896.69;;;5.50
69186;BMP280;56298;49.246;9.410;2022-11-20T07:23:52;98889.81;;;5.53
69186;BMP280;56298;49.246;9.410;2022-11-20T07:26:17;98886.88;;;5.58
69186;BMP280;56298;49.246;9.410;2022-11-20T07:28:45;98889.28;;;5.59
69186;BMP280;56298;49.246;9.410;2022-11-20T07:31:11;98896.44;;;5.64
69186;BMP280;56298;49.246;9.410;2022-11-20T07:33:38;98891.47;;;5.66
69186;BMP280;56298;49.246;9.410;2022-11-20T07:36:03;98889.72;;;5.70
69186;BMP280;56298;49.246;9.410;2022-11-20T07:38:29;98887.78;;;5.71
69186;BMP280;56298;49.246;9.410;2022-11-20T07:40:57;98886.78;;;5.75
69186;BMP280;56298;49.246;9.410;2022-11-20T07:43:23;98883.56;;;5.73
69186;BMP280;56298;49.246;9.410;2022-11-20T07:45:49;98886.78;;;5.75
69186;BMP280;56298;49.246;9.410;2022-11-20T07:48:14;98879.75;;;5.74
69186;BMP280;56298;49.246;9.410;2022-11-20T07:50:39;98885.59;;;5.85
69186;BMP280;56298;49.246;9.410;2022-11-20T07:53:05;98881.28;;;5.84
69186;BMP280;56298;49.246;9.410;2022-11-20T07:55:31;98875.16;;;5.87
69186;BMP280;56298;49.246;9.410;2022-11-20T07:57:57;98879.19;;;5.81
69186;BMP280;56298;49.246;9.410;2022-11-20T08:00:22;98881.06;;;5.89
69186;BMP280;56298;49.246;9.410;2022-11-20T08:02:48;98881.16;;;6.02
69186;BMP280;56298;49.246;9.410;2022-11-20T08:05:13;98883.41;;;6.00
69186;BMP280;56298;49.246;9.410;2022-11-20T08:07:40;98884.22;;;6.00
69186;BMP280;56298;49.246;9.410;2022-11-20T08:10:07;98873.22;;;6.09
69186;BMP280;56298;49.246;9.410;2022-11-20T08:12:32;98876.56;;;6.15
69186;BMP280;56298;49.246;9.410;2022-11-20T08:15:16;98881.31;;;6.18
69186;BMP280;56298;49.246;9.410;2022-11-20T08:17:42;98878.59;;;6.18
69186;BMP280;56298;49.246;9.410;2022-11-20T08:20:07;98882.50;;;6.17
69186;BMP280;56298;49.246;9.410;2022-11-20T08:22:33;98879.38;;;6.19
69186;BMP280;56298;49.246;9.410;2022-11-20T08:24:58;98890.66;;;6.17
69186;BMP280;56298;49.246;9.410;2022-11-20T08:27:24;98885.44;;;6.24
69186;BMP280;56298;49.246;9.410;2022-11-20T08:29:49;98891.81;;;6.28
69186;BMP280;56298;49.246;9.410;2022-11-20T08:32:14;98892.28;;;6.31
69186;BMP280;56298;49.246;9.410;2022-11-20T08:34:39;98890.44;;;6.35
69186;BMP280;56298;49.246;9.410;2022-11-20T08:37:05;98890.59;;;6.38
69186;BMP280;56298;49.246;9.410;2022-11-20T08:39:30;98889.28;;;6.45
69186;BMP280;56298;49.246;9.410;2022-11-20T08:41:56;98890.63;;;6.51
69186;BMP280;56298;49.246;9.410;2022-11-20T08:44:21;98886.44;;;6.53
69186;BMP280;56298;49.246;9.410;2022-11-20T08:46:47;98890.78;;;6.67
69186;BMP280;56298;49.246;9.410;2022-11-20T08:49:13;98893.31;;;6.60
69186;BMP280;56298;49.246;9.410;2022-11-20T08:51:39;98889.00;;;6.71
69186;BMP280;56298;49.246;9.410;2022-11-20T08:54:05;98890.59;;;6.72
69186;BMP280;56298;49.246;9.410;2022-11-20T08:56:30;98895.25;;;6.72
69186;BMP280;56298;49.246;9.410;2022-11-20T08:58:56;98893.72;;;6.62
69186;BMP280;56298;49.246;9.410;2022-11-20T09:01:22;98894.13;;;6.73
69186;BMP280;56298;49.246;9.410;2022-11-20T09:03:48;98905.03;;;6.73
69186;BMP280;56298;49.246;9.410;2022-11-20T09:06:14;98901.50;;;6.72
69186;BMP280;56298;49.246;9.410;2022-11-20T09:08:39;98903.88;;;6.86
69186;BMP280;56298;49.246;9.410;2022-11-20T09:11:05;98906.84;;;6.81
69186;BMP280;56298;49.246;9.410;2022-11-20T09:13:32;98899.00;;;6.92
69186;BMP280;56298;49.246;9.410;2022-11-20T09:16:07;98894.81;;;6.82
69186;BMP280;56298;49.246;9.410;2022-11-20T09:18:34;98904.56;;;6.83
69186;BMP280;56298;49.246;9.410;2022-11-20T09:21:05;98893.34;;;6.84
69186;BMP280;56298;49.246;9.410;2022-11-20T09:23:33;98901.06;;;6.95
69186;BMP280;56298;49.246;9.410;2022-11-20T09:26:02;98902.03;;;7.11
69186;BMP280;56298;49.246;9.410;2022-11-20T09:28:27;98911.53;;;7.18
69186;BMP280;56298;49.246;9.410;2022-11-20T09:30:53;98907.69;;;7.19
69186;BMP280;56298;49.246;9.410;2022-11-20T09:33:18;98908.50;;;7.19
69186;BMP280;56298;49.246;9.410;2022-11-20T09:35:44;98909.94;;;7.29
69186;BMP280;56298;49.246;9.410;2022-11-20T09:38:10;98906.56;;;7.32
69186;BMP280;56298;49.246;9.410;2022-11-20T09:40:45;98900.19;;;7.28
69186;BMP280;56298;49.246;9.410;2022-11-20T09:43:21;98906.09;;;7.30
69186;BMP280;56298;49.246;9.410;2022-11-20T09:46:15;98914.94;;;7.27
69186;BMP280;56298;49.246;9.410;2022-11-20T09:56:42;98908.59;;;7.60
69186;BMP280;56298;49.246;9.410;2022-11-20T10:02:00;98914.16;;;7.51
69186;BMP280;56298;49.246;9.410;2022-11-20T10:04:28;98913.16;;;7.44
69186;BMP280;56298;49.246;9.410;2022-11-20T10:07:16;98912.69;;;7.54
69186;BMP280;56298;49.246;9.410;2022-11-20T10:09:54;98905.31;;;7.42
69186;BMP280;56298;49.246;9.410;2022-11-20T10:26:21;98901.44;;;7.43
69186;BMP280;56298;49.246;9.410;2022-11-20T10:29:18;98902.09;;;7.40
69186;BMP280;56298;49.246;9.410;2022-11-20T10:31:51;98901.78;;;7.54
69186;BMP280;56298;49.246;9.410;2022-11-20T10:36:55;98911.19;;;7.69
69186;BMP280;56298;49.246;9.410;2022-11-20T10:39:45;98909.25;;;7.70
69186;BMP280;56298;49.246;9.410;2022-11-20T10:42:17;98905.50;;;7.74
69186;BMP280;56298;49.246;9.410;2022-11-20T10:44:51;98902.53;;;7.79
69186;BMP280;56298;49.246;9.410;2022-11-20T10:47:28;98900.63;;;7.68
69186;BMP280;56298;49.246;9.410;2022-11-20T10:49:57;98902.69;;;7.58
69186;BMP280;56298;49.246;9.410;2022-11-20T10:52:56;98900.41;;;7.60
69186;BMP280;56298;49.246;9.410;2022-11-20T10:55:42;98894.94;;;7.48
69186;BMP280;56298;49.246;9.410;2022-11-20T10:58:14;98893.72;;;7.33
69186;BMP280;56298;49.246;9.410;2022-11-20T11:00:44;98898.25;;;7.29
69186;BMP280;56298;49.246;9.410;2022-11-20T11:03:26;98891.44;;;7.35
69186;BMP280;56298;49.246;9.410;2022-11-20T11:06:15;98895.41;;;7.37
69186;BMP280;56298;49.246;9.410;2022-11-20T11:08:44;98901.56;;;7.34
69186;BMP280;56298;49.246;9.410;2022-11-20T11:11:21;98895.50;;;7.53
69186;BMP280;56298;49.246;9.410;2022-11-20T11:13:51;98884.84;;;7.61
69186;BMP280;56298;49.246;9.410;2022-11-20T11:18:46;98883.09;;;7.69
69186;BMP280;56298;49.246;9.410;2022-11-20T11:21:11;98875.25;;;7.67
69186;BMP280;56298;49.246;9.410;2022-11-20T11:23:42;98875.41;;;7.58
69186;BMP280;56298;49.246;9.410;2022-11-20T11:26:22;98874.81;;;7.65
69186;BMP280;56298;49.246;9.410;2022-11-20T11:28:58;98864.31;;;7.79
69186;BMP280;56298;49.246;9.410;2022-11-20T11:31:29;98858.47;;;7.93
69186;BMP280;56298;49.246;9.410;2022-11-20T11:34:12;98865.50;;;7.94
69186;BMP280;56298;49.246;9.410;2022-11-20T11:36:37;98857.22;;;7.91
69186;BMP280;56298;49.246;9.410;2022-11-20T11:39:05;98862.59;;;7.87
69186;BMP280;56298;49.246;9.410;2022-11-20T11:41:33;98856.56;;;7.82
69186;BMP280;56298;49.246;9.410;2022-11-20T11:44:27;98855.31;;;7.79
69186;BMP280;56298;49.246;9.410;2022-11-20T11:47:23;98847.38;;;7.74
69186;BMP280;56298;49.246;9.410;2022-11-20T11:49:49;98849.78;;;7.75
69186;BMP280;56298;49.246;9.410;2022-11-20T11:52:20;98849.38;;;7.61
69186;BMP280;56298;49.246;9.410;2022-11-20T11:54:53;98845.47;;;7.62
69186;BMP280;56298;49.246;9.410;2022-11-20T11:57:26;98847.75;;;7.72
69186;BMP280;56298;49.246;9.410;2022-11-20T12:00:09;98837.41;;;7.65
69186;BMP280;56298;49.246;9.410;2022-11-20T12:05:26;98839.94;;;7.58
69186;BMP280;56298;49.246;9.410;2022-11-20T12:08:17;98836.94;;;7.63
69186;BMP280;56298;49.246;9.410;2022-11-20T12:10:56;98836.97;;;7.92
69186;BMP280;56298;49.246;9.410;2022-11-20T12:16:03;98841.69;;;8.07
69186;BMP280;56298;49.246;9.410;2022-11-20T12:18:29;98844.09;;;8.25
69186;BMP280;56298;49.246;9.410;2022-11-20T12:26:00;98831.84;;;8.19
69186;BMP280;56298;49.246;9.410;2022-11-20T12:34:31;98823.63;;;8.47
69186;BMP280;56298;49.246;9.410;2022-11-20T12:37:24;98823.25;;;8.33
69186;BMP280;56298;49.246;9.410;2022-11-20T12:39:55;98828.34;;;8.18
69186;BMP280;56298;49.246;9.410;2022-11-20T12:43:05;98824.72;;;8.14
69186;BMP280;56298;49.246;9.410;2022-11-20T12:51:42;98820.44;;;8.29
69186;BMP280;56298;49.246;9.410;2022-11-20T13:02:57;98817.31;;;9.11
69186;BMP280;56298;49.246;9.410;2022-11-20T13:05:53;98821.38;;;9.01
69186;BMP280;56298;49.246;9.410;2022-11-20T13:08:27;98812.38;;;9.01
69186;BMP280;56298;49.246;9.410;2022-11-20T13:11:19;98818.06;;;8.92
69186;BMP280;56298;49.246;9.410;2022-11-20T13:14:11;98815.22;;;8.88
69186;BMP280;56298;49.246;9.410;2022-11-20T13:16:45;98816.09;;;8.93
69186;BMP280;56298;49.246;9.410;2022-11-20T13:19:15;98819.41;;;9.18
69186;BMP280;56298;49.246;9.410;2022-11-20T13:21:42;98806.03;;;9.32
69186;BMP280;56298;49.246;9.410;2022-11-20T13:24:32;98809.97;;;9.51
69186;BMP280;56298;49.246;9.410;2022-11-20T13:29:27;98805.19;;;9.68
69186;BMP280;56298;49.246;9.410;2022-11-20T13:32:02;98802.56;;;9.36
69186;BMP280;56298;49.246;9.410;2022-11-20T13:34:28;98806.16;;;9.20
69186;BMP280;56298;49.246;9.410;2022-11-20T13:36:58;98800.81;;;9.08
69186;BMP280;56298;49.246;9.410;2022-11-20T13:39:27;98797.25;;;8.87
69186;BMP280;56298;49.246;9.410;2022-11-20T13:44:41;98791.59;;;8.64
69186;BMP280;56298;49.246;9.410;2022-11-20T13:47:24;98795.06;;;8.61
69186;BMP280;56298;49.246;9.410;2022-11-20T13:49:51;98787.56;;;8.58
69186;BMP280;56298;49.246;9.410;2022-11-20T13:57:52;98793.47;;;9.12
69186;BMP280;56298;49.246;9.410;2022-11-20T14:00:23;98794.41;;;9.20
69186;BMP280;56298;49.246;9.410;2022-11-20T14:03:08;98797.06;;;9.16
69186;BMP280;56298;49.246;9.410;2022-11-20T14:05:38;98799.38;;;9.14
69186;BMP280;56298;49.246;9.410;2022-11-20T14:08:06;98795.88;;;8.97
69186;BMP280;56298;49.246;9.410;2022-11-20T14:10:32;98792.22;;;8.89
69186;BMP280;56298;49.246;9.410;2022-11-20T14:12:57;98792.91;;;8.86
69186;BMP280;56298;49.246;9.410;2022-11-20T14:15:29;98787.00;;;8.84
69186;BMP280;56298;49.246;9.410;2022-11-20T14:17:55;98782.09;;;8.74
69186;BMP280;56298;49.246;9.410;2022-11-20T14:20:24;98786.13;;;8.80
69186;BMP280;56298;49.246;9.410;2022-11-20T14:22:51;98785.09;;;8.69
69186;BMP280;56298;49.246;9.410;2022-11-20T14:27:44;98785.63;;;8.58
69186;BMP280;56298;49.246;9.410;2022-11-20T14:30:23;98782.88;;;8.42
69186;BMP280;56298;49.246;9.410;2022-11-20T14:32:49;98786.25;;;8.35
69186;BMP280;56298;49.246;9.410;2022-11-20T14:35:31;98788.59;;;8.21
69186;BMP280;56298;49.246;9.410;2022-11-20T14:38:01;98782.34;;;8.04
69186;BMP280;56298;49.246;9.410;2022-11-20T14:40:31;98784.34;;;7.91
69186;BMP280;56298;49.246;9.410;2022-11-20T14:42:58;98782.22;;;7.85
69186;BMP280;56298;49.246;9.410;2022-11-20T14:45:25;98773.34;;;7.75
69186;BMP280;56298;49.246;9.410;2022-11-20T14:47:52;98778.09;;;7.78
69186;BMP280;56298;49.246;9.410;2022-11-20T14:50:26;98780.69;;;7.87
69186;BMP280;56298;49.246;9.410;2022-11-20T14:53:01;98776.28;;;7.83
69186;BMP280;56298;49.246;9.410;2022-11-20T14:55:34;98769.78;;;7.87
69186;BMP280;56298;49.246;9.410;2022-11-20T14:58:03;98767.75;;;7.84
69186;BMP280;56298;49.246;9.410;2022-11-20T15:00:29;98760.97;;;7.78
69186;BMP280;56298;49.246;9.410;2022-11-20T15:02:56;98760.16;;;7.77
69186;BMP280;56298;49.246;9.410;2022-11-20T15:05:24;98762.78;;;7.74
69186;BMP280;56298;49.246;9.410;2022-11-20T15:08:04;98756.28;;;7.78
69186;BMP280;56298;49.246;9.410;2022-11-20T15:10:30;98750.09;;;7.65
69186;BMP280;56298;49.246;9.410;2022-11-20T15:12:59;98742.41;;;7.55
69186;BMP280;56298;49.246;9.410;2022-11-20T15:17:53;98735.56;;;7.33
69186;BMP280;56298;49.246;9.410;2022-11-20T15:20:20;98740.03;;;7.25
69186;BMP280;56298;49.246;9.410;2022-11-20T15:22:48;98739.44;;;7.19
69186;BMP280;56298;49.246;9.410;2022-11-20T15:25:17;98745.13;;;7.14
69186;BMP280;56298;49.246;9.410;2022-11-20T15:27:44;98743.09;;;6.98
69186;BMP280;56298;49.246;9.410;2022-11-20T15:30:15;98743.91;;;6.99
69186;BMP280;56298;49.246;9.410;2022-11-20T15:32:41;98740.50;;;6.90
69186;BMP280;56298;49.246;9.410;2022-11-20T15:35:07;98755.97;;;6.86
69186;BMP280;56298;49.246;9.410;2022-11-20T15:37:32;98743.69;;;6.79
69186;BMP280;56298;49.246;9.410;2022-11-20T15:39:58;98742.78;;;6.75
69186;BMP280;56298;49.246;9.410;2022-11-20T15:42:23;98734.59;;;6.75
69186;BMP280;56298;49.246;9.410;2022-11-20T15:44:48;98731.31;;;6.69
69186;BMP280;56298;49.246;9.410;2022-11-20T15:47:13;98739.81;;;6.68
69186;BMP280;56298;49.246;9.410;2022-11-20T15:49:39;98737.09;;;6.68
69186;BMP280;56298;49.246;9.410;2022-11-20T15:52:04;98737.47;;;6.66
69186;BMP280;56298;49.246;9.410;2022-11-20T15:54:29;98735.53;;;6.67
69186;BMP280;56298;49.246;9.410;2022-11-20T15:56:55;98732.34;;;6.65
69186;BMP280;56298;49.246;9.410;2022-11-20T15:59:20;98734.03;;;6.69